Time;durP1;ratioP1;P1;durP2;ratioP2;P2;SDS_P1;SDS_P2;PMS_P1;PMS_P2;Temp;Humidity;BMP_temperature;BMP_pressure;BME280_temperature;BME280_humidity;BME280_pressure;Samples;Min_cycle;Max_cycle;Signal;HPM_P1;HPM_P2
2022/08/31 00:06:15;;;;;;;11.57;6.13;;;;;;;16.58;75.32;102016.91;5024320;28;20140;-75
2022/08/31 00:08:40;;;;;;;13.23;5.70;;;;;;;16.59;75.59;102017.75;5023693;28;20112;-76
2022/08/31 00:11:08;;;;;;;8.50;5.68;;;;;;;16.46;76.05;102020.75;5022426;28;20029;-75
2022/08/31 00:13:35;;;;;;;10.38;5.70;;;;;;;16.50;76.00;102014.47;5024587;28;20034;-75
2022/08/31 00:16:01;;;;;;;8.77;5.70;;;;;;;16.40;76.62;102013.41;5021261;28;20021;-76
2022/08/31 00:18:27;;;;;;;10.43;6.72;;;;;;;16.35;76.48;102017.72;5024393;28;20731;-75
2022/08/31 00:20:53;;;;;;;8.02;5.97;;;;;;;16.38;76.66;102021.97;5024186;28;20021;-75
2022/08/31 00:23:19;;;;;;;8.45;5.55;;;;;;;16.45;76.26;102019.91;5023451;28;20048;-75
2022/08/31 00:25:46;;;;;;;8.57;5.78;;;;;;;16.30;77.20;102025.09;5023006;28;20484;-76
2022/08/31 00:28:14;;;;;;;10.57;6.43;;;;;;;16.40;76.31;102018.94;5023471;28;20075;-76
2022/08/31 00:30:39;;;;;;;9.70;5.73;;;;;;;16.39;76.84;102012.56;5021535;28;20080;-76
2022/08/31 00:33:06;;;;;;;10.05;6.13;;;;;;;16.38;76.59;102016.44;5023333;28;20033;-75
2022/08/31 00:35:35;;;;;;;9.45;6.03;;;;;;;16.32;77.25;102015.47;5020440;28;20428;-76
2022/08/31 00:38:01;;;;;;;9.23;6.13;;;;;;;16.46;76.44;102016.03;5023176;28;20029;-76
2022/08/31 00:40:26;;;;;;;9.57;5.15;;;;;;;16.51;76.06;102013.38;5021833;28;20029;-75
2022/08/31 00:42:53;;;;;;;10.75;5.65;;;;;;;16.40;76.57;102014.25;5022723;28;20396;-76
2022/08/31 00:45:18;;;;;;;10.73;5.95;;;;;;;16.36;76.92;102013.03;5021783;28;20035;-76
2022/08/31 00:47:44;;;;;;;8.85;5.75;;;;;;;16.32;76.95;102009.03;5024090;28;20034;-76
2022/08/31 00:50:11;;;;;;;7.53;5.55;;;;;;;16.25;77.55;102016.66;5023747;28;20099;-75
2022/08/31 00:52:41;;;;;;;10.50;6.03;;;;;;;16.27;77.30;102014.47;5020466;28;20029;-75
2022/08/31 00:55:13;;;;;;;11.98;5.55;;;;;;;16.31;77.18;102008.19;5022185;28;20030;-74
2022/08/31 00:57:41;;;;;;;9.55;5.40;;;;;;;16.32;76.98;102018.22;5023499;28;20108;-75
2022/08/31 01:00:13;;;;;;;8.00;5.18;;;;;;;16.38;76.54;102007.25;5021623;28;20527;-75
2022/08/31 01:02:40;;;;;;;10.73;5.20;;;;;;;16.39;76.56;102000.63;5021943;28;20098;-75
2022/08/31 01:05:07;;;;;;;7.50;5.25;;;;;;;16.41;76.64;102004.84;5022465;28;20132;-75
2022/08/31 01:07:32;;;;;;;11.02;6.03;;;;;;;16.34;76.42;102004.13;5019291;28;20033;-75
2022/08/31 01:09:58;;;;;;;9.25;5.13;;;;;;;16.30;76.88;102006.53;5029097;22;20046;-75
2022/08/31 01:12:26;;;;;;;9.05;5.15;;;;;;;16.34;76.41;102004.13;5026734;28;20021;-76
2022/08/31 01:14:51;;;;;;;9.50;5.10;;;;;;;16.32;76.38;102007.16;5037766;28;20044;-75
2022/08/31 01:17:17;;;;;;;13.82;5.43;;;;;;;16.37;76.61;102003.63;5035516;28;20072;-75
2022/08/31 01:19:56;;;;;;;8.30;5.55;;;;;;;16.30;76.94;102008.44;5029673;28;20090;-75
2022/08/31 01:22:50;;;;;;;9.60;5.32;;;;;;;16.49;76.13;102004.47;5042321;28;20021;-75
2022/08/31 01:25:16;;;;;;;6.70;4.60;;;;;;;16.20;77.46;102000.72;5025292;28;20054;-75
2022/08/31 01:27:41;;;;;;;9.27;5.70;;;;;;;16.40;75.99;102008.69;5022177;28;20026;-75
2022/08/31 01:30:09;;;;;;;9.02;5.35;;;;;;;16.26;77.05;102004.47;5019543;28;20087;-75
2022/08/31 01:32:35;;;;;;;9.13;5.22;;;;;;;16.41;76.09;102010.38;5032795;28;20025;-75
2022/08/31 01:35:01;;;;;;;7.22;5.00;;;;;;;16.28;76.49;102005.09;5042473;28;20096;-75
2022/08/31 01:37:27;;;;;;;9.20;5.68;;;;;;;16.32;76.34;102001.59;5040938;28;20120;-75
2022/08/31 01:39:52;;;;;;;8.18;5.55;;;;;;;16.29;76.62;102006.78;5034860;28;20475;-75
2022/08/31 01:42:18;;;;;;;9.50;5.22;;;;;;;16.25;76.32;102009.16;5036206;28;20088;-75
2022/08/31 01:44:43;;;;;;;9.77;5.45;;;;;;;16.15;76.86;102008.09;5025009;28;20029;-74
2022/08/31 01:47:09;;;;;;;8.75;5.55;;;;;;;16.16;76.70;102002.28;5023187;28;20101;-74
2022/08/31 01:49:34;;;;;;;7.95;5.13;;;;;;;16.07;77.64;102006.53;5041475;28;20029;-74
2022/08/31 01:52:00;;;;;;;10.95;5.55;;;;;;;16.07;77.35;102012.91;5033580;28;20033;-73
2022/08/31 01:54:26;;;;;;;9.95;5.72;;;;;;;16.09;77.56;102010.72;5004809;28;20125;-73
2022/08/31 01:56:53;;;;;;;8.98;5.28;;;;;;;16.03;77.46;102008.91;5021943;28;20021;-74
2022/08/31 01:59:20;;;;;;;10.13;5.60;;;;;;;16.00;77.92;102009.38;5010526;28;20476;-75
2022/08/31 02:01:50;;;;;;;11.32;5.68;;;;;;;16.04;77.49;102009.75;5037140;28;20037;-74
2022/08/31 02:04:18;;;;;;;9.23;5.63;;;;;;;16.04;77.61;102004.22;5040756;28;20028;-74
2022/08/31 02:06:46;;;;;;;9.57;5.30;;;;;;;16.05;77.19;102006.75;5022159;28;20104;-75
2022/08/31 02:09:11;;;;;;;6.70;4.80;;;;;;;16.03;77.51;101997.84;5020990;28;20398;-75
2022/08/31 02:11:37;;;;;;;8.02;5.70;;;;;;;16.03;77.32;102006.16;5028804;28;20063;-75
2022/08/31 02:14:03;;;;;;;9.07;5.20;;;;;;;15.92;77.45;102008.91;5022158;28;20052;-75
2022/08/31 02:16:28;;;;;;;10.23;6.13;;;;;;;15.97;77.46;102003.50;5019912;28;20082;-75
2022/08/31 02:18:53;;;;;;;10.65;6.05;;;;;;;15.89;77.99;102001.91;5026208;28;20068;-75
2022/08/31 02:21:19;;;;;;;8.98;5.93;;;;;;;15.76;78.47;102007.66;5021687;28;20033;-75
2022/08/31 02:23:44;;;;;;;13.63;6.10;;;;;;;15.77;78.51;102004.66;5023480;28;20126;-75
2022/08/31 02:26:10;;;;;;;8.60;5.25;;;;;;;15.82;77.82;102006.72;5026025;28;20761;-75
2022/08/31 02:28:36;;;;;;;11.52;5.38;;;;;;;15.86;77.68;102013.44;5020295;28;20036;-76
2022/08/31 02:31:02;;;;;;;12.50;6.05;;;;;;;15.76;78.16;102015.94;5021409;28;20041;-74
2022/08/31 02:33:28;;;;;;;10.10;6.15;;;;;;;15.81;77.36;102007.78;5031192;28;20051;-76
2022/08/31 02:35:53;;;;;;;8.27;5.60;;;;;;;15.65;78.37;102022.31;5029129;28;20025;-76
2022/08/31 02:38:19;;;;;;;12.63;6.40;;;;;;;15.65;78.31;102022.31;5020846;28;20037;-75
2022/08/31 02:40:45;;;;;;;10.57;5.70;;;;;;;15.61;78.84;102018.28;5004326;28;20035;-76
2022/08/31 02:43:11;;;;;;;11.80;5.95;;;;;;;15.60;78.75;102019.38;5028272;28;20367;-75
2022/08/31 02:45:37;;;;;;;11.93;6.07;;;;;;;15.57;78.50;102015.16;5020271;28;20132;-76
2022/08/31 02:48:04;;;;;;;10.52;5.95;;;;;;;15.43;79.20;102020.03;5030523;28;20120;-76
2022/08/31 02:50:30;;;;;;;8.60;6.30;;;;;;;15.40;79.38;102014.13;5038682;28;20486;-76
2022/08/31 02:52:55;;;;;;;10.57;6.20;;;;;;;15.47;79.08;102023.19;5041698;28;20057;-76
2022/08/31 02:55:25;;;;;;;9.82;6.07;;;;;;;15.50;78.22;102012.47;5025457;28;20063;-76
2022/08/31 02:57:51;;;;;;;9.35;5.65;;;;;;;15.42;79.00;102009.22;5004096;28;20030;-75
2022/08/31 03:00:20;;;;;;;10.93;5.63;;;;;;;15.36;79.23;102013.75;5021006;28;20033;-76
2022/08/31 03:02:46;;;;;;;11.65;6.22;;;;;;;15.34;78.97;102012.28;5030057;28;20395;-76
2022/08/31 03:05:11;;;;;;;10.27;6.18;;;;;;;15.28;78.98;102017.69;5041489;28;20394;-75
2022/08/31 03:07:37;;;;;;;8.07;5.78;;;;;;;15.31;79.08;102011.69;5045637;28;20099;-76
2022/08/31 03:10:09;;;;;;;9.98;5.82;;;;;;;15.52;78.13;102018.63;5016277;28;20471;-76
2022/08/31 03:12:36;;;;;;;9.82;5.75;;;;;;;15.33;78.05;102011.44;5022259;28;20057;-76
2022/08/31 03:15:02;;;;;;;8.75;5.45;;;;;;;15.40;77.79;102014.13;5035171;28;20386;-76
2022/08/31 03:17:27;;;;;;;10.25;5.90;;;;;;;15.24;78.36;102012.84;5044803;28;20063;-76
2022/08/31 03:19:59;;;;;;;9.45;5.82;;;;;;;15.18;78.61;102011.84;5028441;28;20061;-76
2022/08/31 03:22:25;;;;;;;10.68;6.00;;;;;;;15.18;78.28;102009.09;5025045;28;20014;-76
2022/08/31 03:24:50;;;;;;;10.02;5.88;;;;;;;15.19;78.29;102009.94;5024753;28;20034;-76
2022/08/31 03:27:16;;;;;;;10.82;5.82;;;;;;;15.24;77.90;102005.38;5036187;28;20057;-76
2022/08/31 03:29:41;;;;;;;8.25;5.07;;;;;;;15.22;77.61;102009.47;5040936;28;20052;-76
2022/08/31 03:32:06;;;;;;;9.50;6.20;;;;;;;15.09;78.14;102013.25;5028403;28;20420;-77
2022/08/31 03:34:32;;;;;;;8.10;5.40;;;;;;;15.18;77.70;102011.00;5043266;28;20689;-76
2022/08/31 03:36:57;;;;;;;9.48;5.68;;;;;;;15.12;77.86;102010.03;5043143;28;20093;-77
2022/08/31 03:39:22;;;;;;;9.23;5.32;;;;;;;14.92;78.66;102013.03;5043393;28;20083;-76
2022/08/31 03:41:47;;;;;;;8.40;5.13;;;;;;;15.00;78.25;102014.63;5026375;28;20372;-76
2022/08/31 03:44:13;;;;;;;9.18;5.63;;;;;;;14.94;78.06;102013.66;5022730;28;20411;-76
2022/08/31 03:46:43;;;;;;;9.52;5.35;;;;;;;14.94;77.78;102018.34;5022399;28;20026;-76
2022/08/31 03:49:09;;;;;;;9.48;5.25;;;;;;;14.87;77.95;102015.66;5030193;28;20029;-76
2022/08/31 03:51:34;;;;;;;10.48;5.35;;;;;;;14.77;78.45;102004.28;5044388;28;20013;-76
2022/08/31 03:53:59;;;;;;;8.18;5.15;;;;;;;14.70;78.19;102014.56;5028069;28;20559;-77
2022/08/31 03:56:24;;;;;;;8.10;4.55;;;;;;;14.67;78.26;102021.41;5023595;28;20040;-76
2022/08/31 03:58:50;;;;;;;12.50;5.37;;;;;;;14.74;77.74;102021.31;5026817;28;20035;-76
2022/08/31 04:01:15;;;;;;;9.70;5.18;;;;;;;14.66;77.85;102021.66;5030329;28;20296;-77
2022/08/31 04:03:40;;;;;;;8.63;5.15;;;;;;;14.74;76.89;102019.41;5042062;28;20079;-77
2022/08/31 04:06:11;;;;;;;7.60;4.95;;;;;;;14.68;77.16;102022.25;5042181;28;20036;-77
2022/08/31 04:08:37;;;;;;;8.95;4.63;;;;;;;14.74;76.36;102022.16;5040413;28;20046;-76
2022/08/31 04:11:12;;;;;;;8.75;4.88;;;;;;;14.71;76.50;102024.56;5028729;28;20060;-76
2022/08/31 04:13:38;;;;;;;8.30;4.65;;;;;;;14.65;76.65;102023.56;5027510;28;20044;-76
2022/08/31 04:16:06;;;;;;;8.57;4.75;;;;;;;14.60;76.63;102025.31;5030450;28;20021;-77
2022/08/31 04:18:32;;;;;;;8.38;4.50;;;;;;;14.51;77.11;102024.78;5043753;28;20029;-76
2022/08/31 04:20:57;;;;;;;11.80;4.80;;;;;;;14.60;76.59;102020.66;5033291;28;20051;-77
2022/08/31 04:23:24;;;;;;;12.70;5.47;;;;;;;14.47;77.29;102026.28;5030799;28;20087;-77
2022/08/31 04:25:49;;;;;;;6.35;4.57;;;;;;;14.49;76.68;102026.91;5024247;28;20037;-76
2022/08/31 04:28:15;;;;;;;8.00;5.07;;;;;;;14.51;76.39;102033.06;5023472;28;20116;-76
2022/08/31 04:30:41;;;;;;;8.80;5.43;;;;;;;14.38;77.17;102033.16;5020826;28;20036;-76
2022/08/31 04:33:07;;;;;;;9.18;5.07;;;;;;;14.34;77.37;102027.22;5037646;28;20013;-76
2022/08/31 04:35:33;;;;;;;10.85;5.20;;;;;;;14.29;77.39;102038.13;5021077;28;20021;-77
2022/08/31 04:37:58;;;;;;;8.02;4.88;;;;;;;14.36;76.79;102030.63;5043413;28;20412;-77
2022/08/31 04:40:24;;;;;;;9.43;4.68;;;;;;;14.29;77.07;102040.88;5042531;28;20025;-76
2022/08/31 04:42:49;;;;;;;8.13;4.60;;;;;;;14.24;77.10;102037.94;5028719;28;20112;-77
2022/08/31 04:45:15;;;;;;;7.85;4.90;;;;;;;14.27;76.86;102034.75;5030600;28;20552;-76
2022/08/31 04:47:41;;;;;;;8.85;4.60;;;;;;;14.32;76.42;102034.06;5018696;28;20476;-76
2022/08/31 04:50:08;;;;;;;7.90;4.40;;;;;;;14.32;75.76;102034.06;5022591;28;20212;-76
2022/08/31 04:52:33;;;;;;;6.73;4.43;;;;;;;14.34;75.64;102037.44;5025540;28;21387;-76
2022/08/31 04:54:59;;;;;;;8.88;5.10;;;;;;;14.30;75.34;102037.06;5025152;28;20379;-76
2022/08/31 04:57:24;;;;;;;10.77;4.72;;;;;;;14.31;75.12;102048.97;5034779;28;20041;-76
2022/08/31 04:59:49;;;;;;;8.02;4.03;;;;;;;14.22;75.14;102040.94;5041239;28;20555;-77
2022/08/31 05:02:15;;;;;;;9.20;4.18;;;;;;;14.22;75.24;102042.88;5020000;28;20186;-76
2022/08/31 05:04:40;;;;;;;7.85;3.88;;;;;;;14.22;74.79;102037.34;5017024;28;20029;-76
2022/08/31 05:07:05;;;;;;;7.47;3.60;;;;;;;14.27;74.04;102037.50;5025784;28;20399;-74
2022/08/31 05:09:31;;;;;;;7.10;3.58;;;;;;;14.41;73.38;102027.19;5040812;28;20171;-75
2022/08/31 05:11:56;;;;;;;6.82;3.70;;;;;;;14.23;73.81;102031.56;5028544;28;20163;-74
2022/08/31 05:14:23;;;;;;;8.23;4.13;;;;;;;14.12;74.29;102042.53;5040402;28;20025;-74
2022/08/31 05:16:49;;;;;;;7.65;3.55;;;;;;;14.19;73.56;102043.31;5042273;28;20036;-74
2022/08/31 05:19:15;;;;;;;7.80;3.70;;;;;;;14.18;73.65;102041.63;5042418;28;20487;-74
2022/08/31 05:21:41;;;;;;;9.23;3.67;;;;;;;14.21;72.66;102041.19;5031532;28;20035;-74
2022/08/31 05:24:11;;;;;;;5.90;3.30;;;;;;;14.18;73.45;102044.38;5022373;28;20043;-75
2022/08/31 05:26:39;;;;;;;7.10;3.80;;;;;;;14.05;74.04;102050.88;5022173;28;20091;-74
2022/08/31 05:29:06;;;;;;;;;;;;;;;14.34;72.77;102056.78;5022157;28;20091;-74
2022/08/31 05:31:32;;;;;;;6.38;3.55;;;;;;;14.18;72.82;102055.44;5026881;28;19916;-74
2022/08/31 05:33:59;;;;;;;8.73;3.60;;;;;;;14.13;73.38;102063.56;5042315;28;20061;-75
2022/08/31 05:36:24;;;;;;;7.93;3.58;;;;;;;14.11;73.45;102060.19;5035672;28;20026;-74
2022/08/31 05:38:52;;;;;;;7.72;3.42;;;;;;;14.11;73.22;102060.19;5023088;28;20036;-74
2022/08/31 05:41:18;;;;;;;6.70;3.47;;;;;;;14.11;73.28;102065.72;5021351;28;20026;-74
2022/08/31 05:43:44;;;;;;;8.45;3.70;;;;;;;14.08;73.26;102058.69;5022636;28;20025;-75
2022/08/31 05:46:12;;;;;;;6.93;3.25;;;;;;;14.12;73.35;102067.41;5019815;28;20163;-75
2022/08/31 05:48:37;;;;;;;10.40;4.38;;;;;;;14.20;72.51;102065.22;5014437;28;20120;-75
2022/08/31 05:51:05;;;;;;;6.47;3.50;;;;;;;14.15;73.57;102064.19;5014615;28;20116;-74
2022/08/31 05:53:31;;;;;;;5.93;3.50;;;;;;;14.25;72.19;102062.63;5016493;28;20040;-75
2022/08/31 05:56:09;;;;;;;6.13;3.20;;;;;;;14.36;71.82;102062.94;5015643;28;20937;-76
2022/08/31 05:58:36;;;;;;;7.15;3.33;;;;;;;14.24;72.08;102068.34;5014149;28;20056;-76
2022/08/31 06:01:01;;;;;;;8.27;3.30;;;;;;;14.27;71.92;102065.16;5011706;28;20128;-76
2022/08/31 06:03:28;;;;;;;6.60;3.33;;;;;;;14.44;70.70;102062.66;5015291;28;20161;-75
2022/08/31 06:05:54;;;;;;;6.80;3.17;;;;;;;14.28;71.33;102059.38;5009664;28;20129;-75
2022/08/31 06:08:19;;;;;;;5.97;3.10;;;;;;;14.42;70.23;102070.34;5012572;28;20100;-74
2022/08/31 06:10:45;;;;;;;6.93;3.08;;;;;;;14.43;70.67;102064.56;5018932;28;20077;-75
2022/08/31 06:13:13;;;;;;;5.20;3.00;;;;;;;14.54;69.75;102071.31;5016962;28;20541;-75
2022/08/31 06:15:39;;;;;;;9.50;2.88;;;;;;;14.64;69.23;102071.63;5015342;28;20477;-76
2022/08/31 06:18:06;;;;;;;6.75;2.78;;;;;;;14.56;69.65;102071.09;5019521;28;20076;-76
2022/08/31 06:20:36;;;;;;;6.93;3.42;;;;;;;14.53;69.77;102070.47;5016490;28;20068;-76
2022/08/31 06:23:04;;;;;;;7.22;2.90;;;;;;;14.59;69.61;102074.22;5016073;28;20056;-75
2022/08/31 06:25:30;;;;;;;7.53;3.28;;;;;;;14.69;68.94;102073.72;5020964;28;20411;-76
2022/08/31 06:27:56;;;;;;;5.93;3.03;;;;;;;14.72;68.98;102073.25;5021038;28;20044;-73
2022/08/31 06:30:25;;;;;;;5.80;2.88;;;;;;;14.74;68.19;102068.34;5010949;28;20037;-75
2022/08/31 06:32:51;;;;;;;5.57;2.40;;;;;;;14.85;68.06;102078.66;5013837;28;20029;-75
2022/08/31 06:35:17;;;;;;;6.13;2.75;;;;;;;14.91;67.59;102074.13;5024607;28;20643;-75
2022/08/31 06:37:42;;;;;;;5.22;2.63;;;;;;;14.98;67.50;102083.19;5025915;28;20440;-75
2022/08/31 06:40:08;;;;;;;7.72;2.90;;;;;;;14.90;67.53;102081.59;5023462;28;20041;-75
2022/08/31 06:42:33;;;;;;;6.15;2.42;;;;;;;14.97;66.46;102087.88;5019448;28;20641;-76
2022/08/31 06:44:58;;;;;;;7.10;3.13;;;;;;;15.02;66.62;102098.28;5019356;28;20032;-76
2022/08/31 06:47:24;;;;;;;5.70;2.72;;;;;;;15.00;67.30;102095.75;5025776;28;20398;-76
2022/08/31 06:49:50;;;;;;;6.43;2.80;;;;;;;15.13;66.70;102102.19;5018254;28;20030;-75
2022/08/31 06:52:16;;;;;;;6.22;2.45;;;;;;;15.21;66.74;102093.59;5020851;28;20052;-76
2022/08/31 06:54:41;;;;;;;5.75;2.50;;;;;;;15.36;65.93;102094.03;5010380;28;20034;-77
2022/08/31 06:57:06;;;;;;;8.80;2.92;;;;;;;15.48;65.75;102091.31;5013916;28;20064;-77
2022/08/31 06:59:32;;;;;;;4.40;2.47;;;;;;;15.49;66.34;102102.16;5015169;28;20546;-77
2022/08/31 07:02:01;;;;;;;5.60;2.72;;;;;;;15.67;65.12;102100.47;5020108;28;20041;-76
2022/08/31 07:04:31;;;;;;;6.72;2.80;;;;;;;15.87;64.08;102102.97;5013810;28;20341;-76
2022/08/31 07:06:56;;;;;;;5.32;2.65;;;;;;;15.84;64.20;102107.03;5005616;28;20128;-76
2022/08/31 07:09:22;;;;;;;5.05;2.63;;;;;;;15.80;63.61;102114.13;5005871;28;20266;-76
2022/08/31 07:11:50;;;;;;;5.25;2.58;;;;;;;15.67;64.75;102106.03;5005420;28;20034;-76
2022/08/31 07:14:20;;;;;;;5.25;2.72;;;;;;;15.65;64.82;102114.53;5016129;28;20330;-77
2022/08/31 07:16:46;;;;;;;4.78;2.50;;;;;;;15.81;63.62;102110.28;5025100;28;20040;-76
2022/08/31 07:19:13;;;;;;;5.15;2.60;;;;;;;15.78;64.53;102110.75;5024233;28;20101;-76
2022/08/31 07:21:50;;;;;;;4.97;2.35;;;;;;;15.89;63.89;102112.72;5024203;28;20037;-77
2022/08/31 07:24:23;;;;;;;5.75;2.38;;;;;;;15.84;64.60;102109.81;5023379;28;20439;-77
2022/08/31 07:26:52;;;;;;;6.47;2.83;;;;;;;15.90;64.42;102111.63;5023935;28;20070;-77
2022/08/31 07:29:19;;;;;;;4.20;2.38;;;;;;;16.07;63.42;102103.53;5023173;28;20527;-76
2022/08/31 07:31:46;;;;;;;5.80;2.65;;;;;;;15.97;63.70;102108.78;5017236;28;20051;-77
2022/08/31 07:34:13;;;;;;;5.57;2.30;;;;;;;15.99;64.23;102115.78;5024826;28;20032;-77
2022/08/31 07:42:08;;;;;;;6.90;2.60;;;;;;;16.25;62.95;102108.97;5022033;28;20143;-77
2022/08/31 07:44:34;;;;;;;12.10;3.08;;;;;;;16.47;62.35;102113.94;5024255;28;20086;-77
2022/08/31 07:46:59;;;;;;;5.32;3.35;;;;;;;16.60;62.90;102119.28;5024404;28;20156;-77
2022/08/31 07:49:25;;;;;;;5.63;2.60;;;;;;;16.59;62.45;102109.28;5020337;28;20068;-77
2022/08/31 07:51:51;;;;;;;10.30;4.70;;;;;;;16.66;62.43;102117.47;5024023;28;20056;-68
2022/08/31 07:54:20;;;;;;;7.07;2.83;;;;;;;16.53;64.10;102113.84;5023798;28;20093;-76
2022/08/31 07:56:50;;;;;;;6.45;2.58;;;;;;;16.77;62.91;102113.88;5023123;28;20109;-77
2022/08/31 07:59:21;;;;;;;6.90;3.13;;;;;;;16.88;62.24;102121.38;5021886;28;20352;-77
2022/08/31 08:01:47;;;;;;;4.35;2.70;;;;;;;16.81;62.89;102115.09;5022041;28;20038;-77
2022/08/31 08:04:20;;;;;;;6.57;2.83;;;;;;;16.82;63.42;102119.53;5021724;28;20026;-76
2022/08/31 08:06:46;;;;;;;7.35;3.10;;;;;;;17.06;62.66;102124.00;5019735;28;20504;-77
2022/08/31 08:09:12;;;;;;;6.38;3.08;;;;;;;17.05;63.60;102115.94;5023587;28;20435;-76
2022/08/31 08:11:43;;;;;;;6.03;2.35;;;;;;;17.15;62.50;102121.72;5023505;28;20024;-76
2022/08/31 08:14:08;;;;;;;8.55;3.13;;;;;;;17.21;63.34;102119.88;5023351;28;20784;-77
2022/08/31 08:16:34;;;;;;;5.35;3.08;;;;;;;17.39;61.78;102114.19;5023230;28;20037;-77
2022/08/31 08:18:59;;;;;;;7.72;3.58;;;;;;;17.40;61.14;102121.41;5043887;28;20292;-76
2022/08/31 08:21:27;;;;;;;4.38;2.90;;;;;;;17.36;62.95;102120.22;4985327;28;20037;-75
2022/08/31 08:23:52;;;;;;;7.55;3.28;;;;;;;17.52;62.43;102125.00;5015815;28;20037;-76
2022/08/31 08:26:18;;;;;;;8.13;3.10;;;;;;;17.60;61.67;102124.63;5016974;28;20040;-77
2022/08/31 08:28:43;;;;;;;6.28;2.70;;;;;;;17.66;61.28;102121.94;5017985;28;20116;-77
2022/08/31 08:31:15;;;;;;;4.70;2.50;;;;;;;17.83;60.72;102125.66;5012382;28;20623;-77
2022/08/31 08:33:41;;;;;;;8.75;2.95;;;;;;;17.82;61.37;102126.75;4999713;28;20380;-77
2022/08/31 08:36:07;;;;;;;6.45;2.75;;;;;;;18.00;61.48;102131.28;5027360;28;20028;-77
2022/08/31 08:38:34;;;;;;;8.13;3.10;;;;;;;18.17;60.23;102129.34;5021335;28;20033;-77
2022/08/31 08:41:03;;;;;;;5.97;3.33;;;;;;;18.26;60.52;102132.56;5022297;28;20018;-77
2022/08/31 08:43:35;;;;;;;5.32;2.50;;;;;;;18.63;59.28;102128.19;5012240;28;20436;-77
2022/08/31 08:46:03;;;;;;;5.63;3.15;;;;;;;18.54;59.69;102129.72;5016303;28;20099;-77
2022/08/31 08:48:33;;;;;;;6.47;3.28;;;;;;;18.74;59.29;102133.97;5023493;28;20040;-77
2022/08/31 08:51:02;;;;;;;7.13;3.08;;;;;;;18.89;58.27;102131.41;5015436;28;20381;-77
2022/08/31 08:53:29;;;;;;;6.20;3.08;;;;;;;18.93;58.04;102125.09;5035826;28;20028;-77
2022/08/31 08:55:55;;;;;;;6.45;2.72;;;;;;;19.22;57.29;102124.09;5018114;28;20029;-76
2022/08/31 08:58:21;;;;;;;4.57;2.50;;;;;;;19.31;56.94;102125.31;5012315;28;20032;-68
2022/08/31 09:00:52;;;;;;;6.10;3.13;;;;;;;19.44;57.39;102117.44;5015398;28;20072;-77
2022/08/31 09:03:40;;;;;;;8.65;2.90;;;;;;;20.67;55.40;102119.56;5016810;28;20048;-76
2022/08/31 09:06:14;;;;;;;6.65;2.90;;;;;;;21.09;52.38;102120.69;5015412;28;20045;-77
2022/08/31 09:09:07;;;;;;;8.13;3.30;;;;;;;20.71;52.92;102119.88;5017547;28;20606;-76
2022/08/31 09:11:53;;;;;;;6.90;2.85;;;;;;;20.82;54.40;102121.63;5026475;28;20137;-73
2022/08/31 09:14:57;;;;;;;6.47;3.20;;;;;;;21.71;52.96;102131.06;5005816;28;20026;-74
2022/08/31 09:17:49;;;;;;;7.13;3.00;;;;;;;23.43;48.88;102114.56;5022236;28;20037;-73
2022/08/31 09:20:15;;;;;;;5.50;2.92;;;;;;;24.90;42.96;102123.97;5027820;28;20419;-73
2022/08/31 09:22:45;;;;;;;5.18;3.05;;;;;;;25.95;40.83;102126.94;5013408;28;20072;-72
2022/08/31 09:25:13;;;;;;;7.05;2.97;;;;;;;26.35;39.58;102123.50;5019697;28;20432;-74
2022/08/31 09:27:46;;;;;;;6.55;3.60;;;;;;;25.78;41.56;102131.13;5013940;28;20131;-74
2022/08/31 09:30:16;;;;;;;5.65;2.47;;;;;;;25.71;41.06;102122.19;5011083;28;20034;-74
2022/08/31 09:32:53;;;;;;;7.82;3.60;;;;;;;25.45;42.50;102123.66;5016266;28;20068;-73
2022/08/31 09:35:41;;;;;;;5.57;3.00;;;;;;;25.84;41.37;102123.44;5017753;28;20041;-74
2022/08/31 09:38:14;;;;;;;7.90;3.70;;;;;;;26.08;39.99;102124.22;5021877;28;20032;-75
2022/08/31 09:40:40;;;;;;;6.50;3.30;;;;;;;26.30;40.02;102120.75;5014430;28;20091;-75
2022/08/31 09:43:12;;;;;;;6.47;3.92;;;;;;;26.64;39.33;102120.50;5014412;28;20032;-74
2022/08/31 09:45:53;;;;;;;10.02;3.83;;;;;;;26.55;39.41;102116.72;5021730;28;20025;-73
2022/08/31 09:48:42;;;;;;;8.95;3.70;;;;;;;26.26;39.40;102125.34;5025445;28;20040;-73
2022/08/31 09:51:18;;;;;;;6.45;3.20;;;;;;;27.50;38.01;102119.16;5019503;28;20068;-72
2022/08/31 09:56:27;;;;;;;7.50;3.30;;;;;;;28.85;34.45;102123.03;5033227;28;20056;-71
2022/08/31 09:59:01;;;;;;;6.75;3.38;;;;;;;28.75;35.75;102126.97;5025989;28;20021;-72
2022/08/31 10:01:41;;;;;;;11.38;3.80;;;;;;;28.02;36.16;102129.03;5020004;28;20057;-71
2022/08/31 10:04:15;;;;;;;7.65;3.45;;;;;;;26.80;38.43;102126.69;5017031;28;20028;-73
2022/08/31 10:06:48;;;;;;;6.82;3.72;;;;;;;26.65;39.03;102121.34;5012835;28;20527;-72
2022/08/31 10:09:36;;;;;;;8.80;3.67;;;;;;;26.29;39.76;102124.72;5021986;28;20031;-72
2022/08/31 10:12:08;;;;;;;7.68;3.42;;;;;;;25.70;40.71;102112.09;5028217;28;20031;-71
2022/08/31 10:14:44;;;;;;;7.82;4.00;;;;;;;25.46;42.06;102111.28;5033701;28;20056;-73
2022/08/31 10:17:24;;;;;;;8.70;3.92;;;;;;;26.88;39.68;102114.72;5024094;28;20033;-73
2022/08/31 10:20:08;;;;;;;7.22;3.60;;;;;;;27.33;38.14;102109.34;5028262;28;20123;-72
2022/08/31 10:22:46;;;;;;;5.82;3.42;;;;;;;28.45;36.51;102111.63;5030738;28;20086;-70
2022/08/31 10:25:11;;;;;;;7.18;3.22;;;;;;;29.17;35.60;102096.41;5025356;28;20037;-70
2022/08/31 10:27:43;;;;;;;7.00;3.92;;;;;;;28.42;36.60;102104.63;5022983;28;20029;-70
2022/08/31 10:30:17;;;;;;;6.75;2.72;;;;;;;27.69;37.30;102100.13;5024687;28;20036;-69
2022/08/31 10:33:09;;;;;;;8.93;3.90;;;;;;;27.04;38.97;102097.50;5025093;28;20120;-69
2022/08/31 10:35:48;;;;;;;8.20;3.90;;;;;;;27.38;39.11;102099.94;5025539;28;20029;-69
2022/08/31 10:38:24;;;;;;;7.05;3.13;;;;;;;27.56;38.83;102095.31;5025054;28;20013;-69
2022/08/31 10:41:00;;;;;;;7.90;3.30;;;;;;;27.13;39.54;102098.50;5033511;28;20151;-69
2022/08/31 10:43:44;;;;;;;7.07;3.50;;;;;;;26.95;39.11;102094.56;5026610;28;20127;-69
2022/08/31 10:46:10;;;;;;;6.75;3.03;;;;;;;26.88;39.63;102092.16;5023838;28;20499;-69
2022/08/31 10:48:39;;;;;;;8.35;3.60;;;;;;;28.02;37.80;102085.81;5025170;28;20022;-69
2022/08/31 10:51:16;;;;;;;6.78;3.40;;;;;;;28.80;35.94;102089.25;5022554;28;20026;-69
2022/08/31 10:53:54;;;;;;;6.40;2.97;;;;;;;28.87;35.28;102093.25;5012413;28;20375;-69
2022/08/31 10:56:55;;;;;;;7.00;3.47;;;;;;;28.86;35.21;102083.09;5023623;28;20033;-69
2022/08/31 10:59:55;;;;;;;6.63;3.28;;;;;;;28.52;36.44;102085.75;5033688;28;20030;-68
2022/08/31 11:02:41;;;;;;;7.72;3.50;;;;;;;28.57;35.89;102079.94;4994250;28;20122;-69
2022/08/31 11:05:34;;;;;;;9.13;3.58;;;;;;;27.92;37.33;102087.72;4990260;28;20056;-69
2022/08/31 11:08:21;;;;;;;6.07;3.20;;;;;;;27.49;39.42;102087.28;5005113;28;20025;-69
2022/08/31 11:10:50;;;;;;;6.60;3.17;;;;;;;29.58;34.77;102081.91;5017660;28;20613;-69
2022/08/31 11:13:59;;;;;;;10.20;3.08;;;;;;;30.25;34.15;102086.31;5024875;28;20554;-69
2022/08/31 11:16:54;;;;;;;7.63;2.78;;;;;;;30.03;33.80;102086.47;5011088;28;20103;-69
2022/08/31 11:19:36;;;;;;;4.97;2.85;;;;;;;29.51;34.72;102081.56;5017584;28;20044;-70
2022/08/31 11:22:33;;;;;;;8.48;3.42;;;;;;;28.94;35.75;102082.38;5019587;28;20029;-69
2022/08/31 11:25:17;;;;;;;7.93;2.97;;;;;;;29.67;35.94;102074.28;5020272;28;20105;-70
2022/08/31 11:27:49;;;;;;;8.10;3.20;;;;;;;29.91;35.31;102085.13;5011608;28;20072;-70
2022/08/31 11:30:25;;;;;;;4.47;2.92;;;;;;;29.35;35.77;102081.19;5021321;28;20049;-69
2022/08/31 11:32:56;;;;;;;7.57;3.53;;;;;;;28.27;37.51;102076.72;5017087;28;20026;-71
2022/08/31 11:36:07;;;;;;;6.95;2.65;;;;;;;27.32;38.71;102075.78;5008934;28;20025;-69
2022/08/31 11:38:53;;;;;;;9.13;3.60;;;;;;;26.56;40.35;102069.63;5013987;28;20079;-69
2022/08/31 11:41:40;;;;;;;5.32;3.40;;;;;;;26.30;41.25;102069.22;5013299;28;20048;-70
2022/08/31 11:44:08;;;;;;;6.85;3.58;;;;;;;26.01;41.48;102061.81;5013113;28;20033;-70
2022/08/31 11:46:35;;;;;;;7.78;3.03;;;;;;;25.71;41.96;102057.47;5020851;28;20041;-70
2022/08/31 11:49:00;;;;;;;6.53;3.40;;;;;;;25.59;42.76;102062.69;5023319;28;20531;-69